Time,TemperatureF,DewpointF,PressureIn,WindDirection,WindDirectionDegrees,WindSpeedMPH,WindSpeedGustMPH,Humidity,HourlyPrecipIn,Conditions,Clouds,dailyrainin,SolarRadiationWatts/m^2,SoftwareType,DateUTC
2013-01-11 00:01:00,40.5,29.0,30.13,WNW,295,0.0,-999.0,63,-99.99,,,0.04,0,weatherlink.com 1.10,2013-01-11 08:01:00,
2013-01-11 00:15:00,39.0,28.0,30.14,SSE,167,0.0,-999.0,64,-99.99,,,0.00,0,weatherlink.com 1.10,2013-01-11 08:15:00,
2013-01-11 00:30:00,37.3,28.0,30.14,ESE,123,0.0,-999.0,68,-99.99,,,0.00,0,weatherlink.com 1.10,2013-01-11 08:30:00,
2013-01-11 00:45:00,36.2,27.0,30.14,SE,126,0.0,-999.0,70,-99.99,,,0.00,0,weatherlink.com 1.10,2013-01-11 08:45:00,
2013-01-11 01:01:00,35.4,27.0,30.14,SE,126,0.0,-999.0,71,-99.99,,,0.00,0,weatherlink.com 1.10,2013-01-11 09:01:00,
2013-01-11 01:16:00,-999.0,-99.9,30.15,North,-999,-999.0,-999.0,-999,-99.99,,,0.00,,weatherlink.com 1.10,2013-01-11 09:16:00,
2013-01-11 01:31:00,-999.0,-99.9,30.16,North,-999,-999.0,-999.0,-999,-99.99,,,0.00,,weatherlink.com 1.10,2013-01-11 09:31:00,
2013-01-11 01:46:00,34.2,28.0,30.15,NE,55,0.0,-999.0,78,-99.99,,,0.00,0,weatherlink.com 1.10,2013-01-11 09:46:00,
2013-01-11 02:01:00,33.4,28.0,30.16,NE,55,0.0,-999.0,80,-99.99,,,0.00,0,weatherlink.com 1.10,2013-01-11 10:01:00,
2013-01-11 02:16:00,32.9,27.0,30.15,NE,55,0.0,-999.0,80,-99.99,,,0.00,0,weatherlink.com 1.10,2013-01-11 10:16:00,
2013-01-11 02:31:00,32.5,27.0,30.16,ENE,57,0.0,-999.0,81,-99.99,,,0.00,0,weatherlink.com 1.10,2013-01-11 10:31:00,
2013-01-11 02:46:00,31.9,27.0,30.16,ENE,57,0.0,-999.0,81,-99.99,,,0.00,0,weatherlink.com 1.10,2013-01-11 10:46:00,
2013-01-11 03:01:00,31.5,26.0,30.16,ENE,57,0.0,-999.0,81,-99.99,,,0.00,0,weatherlink.com 1.10,2013-01-11 11:01:00,
2013-01-11 03:16:00,31.0,26.0,30.17,ENE,57,0.0,-999.0,82,-99.99,,,0.00,0,weatherlink.com 1.10,2013-01-11 11:16:00,
2013-01-11 03:31:00,30.7,26.0,30.17,ENE,57,0.0,-999.0,83,-99.99,,,0.00,0,weatherlink.com 1.10,2013-01-11 11:31:00,
2013-01-11 03:46:00,30.3,26.0,30.17,ENE,57,0.0,-999.0,84,-99.99,,,0.00,0,weatherlink.com 1.10,2013-01-11 11:46:00,
2013-01-11 04:01:00,30.0,26.0,30.18,ENE,57,0.0,-999.0,84,-99.99,,,0.00,0,weatherlink.com 1.10,2013-01-11 12:01:00,
2013-01-11 04:17:00,29.7,25.0,30.18,ENE,57,0.0,-999.0,84,-99.99,,,0.00,0,weatherlink.com 1.10,2013-01-11 12:17:00,
2013-01-11 04:32:00,29.2,25.0,30.18,ENE,57,0.0,-999.0,85,-99.99,,,0.00,0,weatherlink.com 1.10,2013-01-11 12:32:00,
2013-01-11 04:47:00,29.0,25.0,30.19,West,274,0.0,-999.0,86,-99.99,,,0.00,0,weatherlink.com 1.10,2013-01-11 12:47:00,
2013-01-11 05:02:00,29.1,26.0,30.19,West,274,0.0,-999.0,87,-99.99,,,0.00,0,weatherlink.com 1.10,2013-01-11 13:02:00,
2013-01-11 05:17:00,29.0,26.0,30.20,West,274,0.0,-999.0,87,-99.99,,,0.00,0,weatherlink.com 1.10,2013-01-11 13:17:00,
2013-01-11 05:32:00,28.7,26.0,30.20,West,274,0.0,-999.0,88,-99.99,,,0.00,0,weatherlink.com 1.10,2013-01-11 13:32:00,
2013-01-11 05:47:00,28.4,25.0,30.20,West,274,0.0,-999.0,87,-99.99,,,0.00,0,weatherlink.com 1.10,2013-01-11 13:47:00,
2013-01-11 06:02:00,28.1,25.0,30.20,West,274,0.0,-999.0,88,-99.99,,,0.00,0,weatherlink.com 1.10,2013-01-11 14:02:00,
2013-01-11 06:17:00,28.2,25.0,30.21,West,267,0.0,-999.0,88,-99.99,,,0.00,0,weatherlink.com 1.10,2013-01-11 14:17:00,
2013-01-11 06:32:00,27.7,25.0,30.21,North,352,0.0,-999.0,88,-99.99,,,0.00,0,weatherlink.com 1.10,2013-01-11 14:32:00,
2013-01-11 06:47:00,27.7,25.0,30.21,NNE,26,0.0,-999.0,89,-99.99,,,0.00,0,weatherlink.com 1.10,2013-01-11 14:47:00,
2013-01-11 07:02:00,27.5,25.0,30.22,NNE,26,0.0,-999.0,89,-99.99,,,0.00,7,weatherlink.com 1.10,2013-01-11 15:02:00,
2013-01-11 07:18:00,27.4,25.0,30.22,NNE,26,0.0,-999.0,89,-99.99,,,0.00,14,weatherlink.com 1.10,2013-01-11 15:18:00,
2013-01-11 07:32:00,27.9,25.0,30.22,NE,41,0.0,-999.0,89,-99.99,,,0.00,39,weatherlink.com 1.10,2013-01-11 15:32:00,
2013-01-11 07:49:00,28.7,26.0,30.23,NE,41,0.0,-999.0,90,-99.99,,,0.00,116,weatherlink.com 1.10,2013-01-11 15:49:00,
2013-01-11 08:03:00,29.9,27.0,30.23,NE,41,0.0,-999.0,90,-99.99,,,0.00,153,weatherlink.com 1.10,2013-01-11 16:03:00,
2013-01-11 08:18:00,32.0,29.0,30.23,NE,41,0.0,-999.0,90,-99.99,,,0.00,218,weatherlink.com 1.10,2013-01-11 16:18:00,
2013-01-11 08:33:00,34.4,30.0,30.23,NE,44,0.0,-999.0,85,-99.99,,,0.00,279,weatherlink.com 1.10,2013-01-11 16:33:00,
2013-01-11 08:48:00,36.8,31.0,30.23,NE,46,0.0,-999.0,79,-99.99,,,0.00,327,weatherlink.com 1.10,2013-01-11 16:48:00,
2013-01-11 09:03:00,39.1,31.0,30.23,NE,46,0.0,-999.0,73,-99.99,,,0.00,371,weatherlink.com 1.10,2013-01-11 17:03:00,
2013-01-11 09:18:00,41.2,32.0,30.22,NE,46,0.0,-999.0,70,-99.99,,,0.00,415,weatherlink.com 1.10,2013-01-11 17:18:00,
2013-01-11 09:33:00,43.6,33.0,30.22,NE,46,0.0,-999.0,66,-99.99,,,0.00,454,weatherlink.com 1.10,2013-01-11 17:33:00,
2013-01-11 09:48:00,46.1,30.0,30.21,WSW,246,3.0,-999.0,54,-99.99,,,0.00,487,weatherlink.com 1.10,2013-01-11 17:48:00,
2013-01-11 10:04:00,48.4,29.0,30.21,West,278,0.0,-999.0,48,-99.99,,,0.00,519,weatherlink.com 1.10,2013-01-11 18:04:00,
2013-01-11 10:19:00,50.8,28.0,30.20,West,271,0.0,-999.0,41,-99.99,,,0.00,545,weatherlink.com 1.10,2013-01-11 18:19:00,
2013-01-11 10:34:00,52.1,28.0,30.20,WNW,282,0.0,-999.0,39,-99.99,,,0.00,568,weatherlink.com 1.10,2013-01-11 18:34:00,
2013-01-11 10:49:00,52.8,26.0,30.19,West,278,5.0,-999.0,36,-99.99,,,0.00,587,weatherlink.com 1.10,2013-01-11 18:49:00,
2013-01-11 11:04:00,53.1,27.0,30.18,WNW,302,3.0,-999.0,36,-99.99,,,0.00,601,weatherlink.com 1.10,2013-01-11 19:04:00,
2013-01-11 11:19:00,53.7,27.0,30.17,West,273,1.0,-999.0,36,-99.99,,,0.00,610,weatherlink.com 1.10,2013-01-11 19:19:00,
2013-01-11 11:34:00,54.3,27.0,30.17,NW,321,4.0,-999.0,35,-99.99,,,0.00,610,weatherlink.com 1.10,2013-01-11 19:34:00,
2013-01-11 11:49:00,54.6,27.0,30.15,North,1,0.0,-999.0,35,-99.99,,,0.00,617,weatherlink.com 1.10,2013-01-11 19:49:00,
2013-01-11 12:04:00,55.6,27.0,30.14,SW,230,2.0,-999.0,33,-99.99,,,0.00,612,weatherlink.com 1.10,2013-01-11 20:04:00,
2013-01-11 12:19:00,55.9,26.0,30.13,NW,310,3.0,-999.0,32,-99.99,,,0.00,608,weatherlink.com 1.10,2013-01-11 20:19:00,
2013-01-11 12:37:00,56.6,26.0,30.12,NW,314,2.0,-999.0,31,-99.99,,,0.00,598,weatherlink.com 1.10,2013-01-11 20:37:00,
2013-01-11 12:49:00,56.5,24.0,30.12,NW,323,5.0,-999.0,28,-99.99,,,0.00,592,weatherlink.com 1.10,2013-01-11 20:49:00,
2013-01-11 13:04:00,56.9,25.0,30.11,WNW,298,4.0,-999.0,29,-99.99,,,0.00,575,weatherlink.com 1.10,2013-01-11 21:04:00,
2013-01-11 13:19:00,56.6,30.0,30.10,NW,315,5.0,-999.0,36,-99.99,,,0.00,552,weatherlink.com 1.10,2013-01-11 21:19:00,
2013-01-11 13:34:00,55.9,28.0,30.10,NW,304,1.0,-999.0,35,-99.99,,,0.00,531,weatherlink.com 1.10,2013-01-11 21:34:00,
2013-01-11 13:50:00,55.4,29.0,30.10,WSW,255,5.0,-999.0,36,-99.99,,,0.00,501,weatherlink.com 1.10,2013-01-11 21:50:00,
2013-01-11 14:06:00,55.8,28.0,30.10,West,278,2.0,-999.0,34,-99.99,,,0.00,466,weatherlink.com 1.10,2013-01-11 22:06:00,
2013-01-11 14:21:00,55.7,30.0,30.10,WSW,245,6.0,-999.0,37,-99.99,,,0.00,432,weatherlink.com 1.10,2013-01-11 22:21:00,
2013-01-11 14:35:00,55.3,29.0,30.10,WNW,301,3.0,-999.0,37,-99.99,,,0.00,396,weatherlink.com 1.10,2013-01-11 22:35:00,
2013-01-11 14:50:00,54.7,29.0,30.09,WSW,253,8.0,-999.0,38,-99.99,,,0.00,357,weatherlink.com 1.10,2013-01-11 22:50:00,
2013-01-11 15:05:00,54.4,29.0,30.09,West,267,5.0,-999.0,38,-99.99,,,0.00,315,weatherlink.com 1.10,2013-01-11 23:05:00,
2013-01-11 15:23:00,54.5,30.0,30.09,West,272,8.0,-999.0,39,-99.99,,,0.00,260,weatherlink.com 1.10,2013-01-11 23:23:00,
2013-01-11 15:36:00,53.6,29.0,30.09,West,264,4.0,-999.0,39,-99.99,,,0.00,214,weatherlink.com 1.10,2013-01-11 23:36:00,
2013-01-11 15:50:00,53.2,29.0,30.09,West,275,0.0,-999.0,40,-99.99,,,0.00,156,weatherlink.com 1.10,2013-01-11 23:50:00,
2013-01-11 16:06:00,52.5,29.0,30.09,WSW,252,3.0,-999.0,41,-99.99,,,0.00,102,weatherlink.com 1.10,2013-01-12 00:06:00,
2013-01-11 16:21:00,51.7,30.0,30.09,West,274,0.0,-999.0,43,-99.99,,,0.00,56,weatherlink.com 1.10,2013-01-12 00:21:00,
2013-01-11 16:36:00,50.4,30.0,30.09,WSW,255,2.0,-999.0,45,-99.99,,,0.00,16,weatherlink.com 1.10,2013-01-12 00:36:00,
2013-01-11 16:51:00,49.5,31.0,30.09,WSW,248,0.0,-999.0,50,-99.99,,,0.00,11,weatherlink.com 1.10,2013-01-12 00:51:00,
2013-01-11 17:06:00,49.0,32.0,30.09,WSW,250,0.0,-999.0,52,-99.99,,,0.00,0,weatherlink.com 1.10,2013-01-12 01:06:00,
2013-01-11 17:21:00,48.3,32.0,30.09,WSW,250,0.0,-999.0,54,-99.99,,,0.00,0,weatherlink.com 1.10,2013-01-12 01:21:00,
2013-01-11 17:36:00,47.1,34.0,30.10,WNW,295,0.0,-999.0,60,-99.99,,,0.00,0,weatherlink.com 1.10,2013-01-12 01:36:00,
2013-01-11 17:51:00,45.9,33.0,30.10,NW,311,0.0,-999.0,61,-99.99,,,0.00,0,weatherlink.com 1.10,2013-01-12 01:51:00,
2013-01-11 18:06:00,44.2,32.0,30.10,NW,311,0.0,-999.0,62,-99.99,,,0.00,0,weatherlink.com 1.10,2013-01-12 02:06:00,
2013-01-11 18:21:00,42.7,31.0,30.11,NW,311,0.0,-999.0,63,-99.99,,,0.00,0,weatherlink.com 1.10,2013-01-12 02:21:00,
2013-01-11 18:36:00,41.5,30.0,30.11,NW,311,0.0,-999.0,65,-99.99,,,0.00,0,weatherlink.com 1.10,2013-01-12 02:36:00,
2013-01-11 18:51:00,40.5,30.0,30.11,NW,311,1.0,-999.0,66,-99.99,,,0.00,0,weatherlink.com 1.10,2013-01-12 02:51:00,
2013-01-11 19:06:00,39.4,30.0,30.11,NW,311,0.0,-999.0,68,-99.99,,,0.00,0,weatherlink.com 1.10,2013-01-12 03:06:00,
2013-01-11 19:21:00,38.6,30.0,30.11,SSW,207,0.0,-999.0,70,-99.99,,,0.00,0,weatherlink.com 1.10,2013-01-12 03:21:00,
2013-01-11 19:36:00,37.8,29.0,30.10,ESE,111,0.0,-999.0,71,-99.99,,,0.00,0,weatherlink.com 1.10,2013-01-12 03:36:00,
2013-01-11 19:51:00,37.3,29.0,30.11,ESE,102,0.0,-999.0,73,-99.99,,,0.00,0,weatherlink.com 1.10,2013-01-12 03:51:00,
2013-01-11 20:08:00,36.9,29.0,30.11,South,186,0.0,-999.0,74,-99.99,,,0.00,0,weatherlink.com 1.10,2013-01-12 04:08:00,
2013-01-11 20:21:00,36.5,29.0,30.11,SE,141,0.0,-999.0,75,-99.99,,,0.00,0,weatherlink.com 1.10,2013-01-12 04:21:00,
2013-01-11 20:36:00,36.1,29.0,30.11,SE,141,0.0,-999.0,76,-99.99,,,0.00,0,weatherlink.com 1.10,2013-01-12 04:36:00,
2013-01-11 21:06:00,34.9,28.0,30.11,SE,141,0.0,-999.0,77,-99.99,,,0.00,0,weatherlink.com 1.10,2013-01-12 05:06:00,
2013-01-11 21:21:00,34.0,28.0,30.11,SE,141,0.0,-999.0,77,-99.99,,,0.00,0,weatherlink.com 1.10,2013-01-12 05:21:00,
2013-01-11 21:36:00,33.5,28.0,30.12,SE,141,0.0,-999.0,79,-99.99,,,0.00,0,weatherlink.com 1.10,2013-01-12 05:36:00,
2013-01-11 21:51:00,33.2,27.0,30.12,SE,141,0.0,-999.0,79,-99.99,,,0.00,0,weatherlink.com 1.10,2013-01-12 05:51:00,
2013-01-11 22:06:00,32.1,27.0,30.11,SE,141,0.0,-999.0,80,-99.99,,,0.00,0,weatherlink.com 1.10,2013-01-12 06:06:00,
2013-01-11 22:21:00,31.5,27.0,30.12,SE,141,0.0,-999.0,82,-99.99,,,0.00,0,weatherlink.com 1.10,2013-01-12 06:21:00,
2013-01-11 22:36:00,31.2,27.0,30.12,SE,141,0.0,-999.0,83,-99.99,,,0.00,0,weatherlink.com 1.10,2013-01-12 06:36:00,
2013-01-11 22:51:00,30.9,27.0,30.12,East,86,0.0,-999.0,84,-99.99,,,0.00,0,weatherlink.com 1.10,2013-01-12 06:51:00,
2013-01-11 23:06:00,31.2,27.0,30.12,SE,146,0.0,-999.0,85,-99.99,,,0.00,0,weatherlink.com 1.10,2013-01-12 07:06:00,
2013-01-11 23:21:00,30.3,26.0,30.12,SE,142,0.0,-999.0,84,-99.99,,,0.00,0,weatherlink.com 1.10,2013-01-12 07:21:00,
2013-01-11 23:36:00,30.1,26.0,30.12,SE,142,0.0,-999.0,85,-99.99,,,0.00,0,weatherlink.com 1.10,2013-01-12 07:36:00,
2013-01-11 23:51:00,29.8,26.0,30.13,SE,142,0.0,-999.0,86,-99.99,,,0.00,0,weatherlink.com 1.10,2013-01-12 07:51:00,